Time;durP1;ratioP1;P1;durP2;ratioP2;P2;SDS_P1;SDS_P2;PMS_P1;PMS_P2;Temp;Humidity;BMP_temperature;BMP_pressure;BME280_temperature;BME280_humidity;BME280_pressure;Samples;Min_cycle;Max_cycle;Signal;HPM_P1;HPM_P2
2023/09/22 00:01:36;;;;;;;21.65;11.38;;;;;;;11.32;100.00;99876.25;5064679;28;20029;-78
2023/09/22 00:04:02;;;;;;;21.85;11.38;;;;;;;11.27;100.00;99865.97;5067966;28;20108;-78
2023/09/22 00:06:27;;;;;;;22.23;10.48;;;;;;;11.27;100.00;99872.97;5071002;28;20115;-78
2023/09/22 00:08:53;;;;;;;23.20;11.60;;;;;;;11.22;100.00;99870.56;5067671;28;20033;-78
2023/09/22 00:11:18;;;;;;;23.08;11.20;;;;;;;11.13;100.00;99870.94;5064355;28;20384;-78
2023/09/22 00:13:43;;;;;;;21.80;10.93;;;;;;;11.12;100.00;99877.91;5073630;28;20108;-78
2023/09/22 00:16:09;;;;;;;21.52;10.23;;;;;;;11.10;100.00;99871.91;5074402;28;20494;-78
2023/09/22 00:18:35;;;;;;;23.00;10.15;;;;;;;11.10;100.00;99863.22;5067463;28;20468;-78
2023/09/22 00:21:00;;;;;;;20.60;10.88;;;;;;;11.05;100.00;99870.38;5073006;28;20115;-78
2023/09/22 00:23:26;;;;;;;23.50;10.52;;;;;;;11.03;100.00;99862.63;5074869;28;20480;-78
2023/09/22 00:25:52;;;;;;;26.05;10.07;;;;;;;10.99;100.00;99872.34;5070032;28;20028;-78
2023/09/22 00:28:17;;;;;;;21.67;10.60;;;;;;;10.93;100.00;99876.97;5067861;28;20077;-79
2023/09/22 00:30:42;;;;;;;20.92;10.32;;;;;;;10.92;100.00;99878.72;5074222;28;20041;-78
2023/09/22 00:33:08;;;;;;;20.55;10.27;;;;;;;10.89;100.00;99873.63;5067669;28;20037;-78
2023/09/22 00:35:33;;;;;;;27.08;10.43;;;;;;;10.90;100.00;99884.91;5072424;28;20032;-78
2023/09/22 00:37:59;;;;;;;25.50;10.95;;;;;;;10.86;100.00;99886.78;5069087;28;20480;-78
2023/09/22 00:40:25;;;;;;;27.17;11.65;;;;;;;10.87;100.00;99880.66;5068147;28;20025;-78
2023/09/22 00:43:05;;;;;;;31.02;11.45;;;;;;;10.89;100.00;99883.19;5068595;28;20031;-78
2023/09/22 00:45:31;;;;;;;27.13;11.13;;;;;;;10.84;100.00;99877.31;5069469;28;20021;-78
2023/09/22 00:47:56;;;;;;;30.05;12.02;;;;;;;10.90;100.00;99879.69;5069225;28;20035;-78
2023/09/22 00:50:21;;;;;;;30.67;11.38;;;;;;;10.91;100.00;99868.34;5071195;28;20491;-79
2023/09/22 00:52:47;;;;;;;30.65;11.82;;;;;;;10.89;100.00;99865.81;5068836;28;20040;-78
2023/09/22 00:55:12;;;;;;;28.08;11.48;;;;;;;10.87;100.00;99858.97;5071592;28;20060;-78
2023/09/22 00:57:38;;;;;;;29.48;11.60;;;;;;;10.82;100.00;99856.50;5073228;28;20383;-78
2023/09/22 01:00:08;;;;;;;25.90;11.50;;;;;;;10.80;100.00;99860.97;5071369;28;20032;-78
2023/09/22 01:02:33;;;;;;;28.88;11.65;;;;;;;10.76;100.00;99862.84;5063043;28;20486;-78
2023/09/22 01:04:59;;;;;;;27.65;10.73;;;;;;;10.75;100.00;99870.72;5072876;28;20029;-78
2023/09/22 01:07:25;;;;;;;30.58;11.60;;;;;;;10.70;100.00;99872.66;5071914;28;20029;-78
2023/09/22 01:09:50;;;;;;;30.08;12.25;;;;;;;10.68;100.00;99875.31;5065318;28;20031;-78
2023/09/22 01:12:16;;;;;;;29.10;11.80;;;;;;;10.64;100.00;99858.09;5064895;28;20111;-78
2023/09/22 01:14:43;;;;;;;33.25;11.60;;;;;;;10.67;100.00;99867.56;5062615;28;20025;-78
2023/09/22 01:17:09;;;;;;;26.40;10.77;;;;;;;10.65;100.00;99871.97;5064985;28;20543;-78
2023/09/22 01:19:34;;;;;;;34.47;12.98;;;;;;;10.64;100.00;99868.53;5063398;28;20039;-77
2023/09/22 01:21:59;;;;;;;33.65;13.27;;;;;;;10.62;100.00;99870.34;5063355;28;20109;-78
2023/09/22 01:24:24;;;;;;;34.58;13.00;;;;;;;10.55;100.00;99856.69;5065742;28;20510;-78
2023/09/22 01:26:50;;;;;;;30.48;12.43;;;;;;;10.58;100.00;99854.91;5070714;28;20031;-78
2023/09/22 01:29:15;;;;;;;30.92;12.52;;;;;;;10.60;100.00;99858.31;5071233;28;20024;-78
2023/09/22 01:31:42;;;;;;;33.67;13.10;;;;;;;10.53;100.00;99840.28;5067539;28;20029;-78
2023/09/22 01:34:10;;;;;;;36.72;12.85;;;;;;;10.52;100.00;99835.97;5071037;28;20044;-78
2023/09/22 01:36:36;;;;;;;31.67;13.32;;;;;;;10.59;100.00;99848.75;5068084;28;20035;-78
2023/09/22 01:39:02;;;;;;;36.30;13.13;;;;;;;10.60;100.00;99851.31;5070282;28;20107;-78
2023/09/22 01:41:27;;;;;;;37.83;13.20;;;;;;;10.63;100.00;99850.38;5069716;28;20028;-78
2023/09/22 01:43:53;;;;;;;33.38;12.38;;;;;;;10.62;100.00;99851.25;5068889;28;20475;-78
2023/09/22 01:46:18;;;;;;;40.28;14.43;;;;;;;10.65;100.00;99853.75;5071084;28;20027;-78
2023/09/22 01:48:43;;;;;;;37.83;13.88;;;;;;;10.62;100.00;99841.66;5065735;28;20098;-78
2023/09/22 01:51:09;;;;;;;37.13;13.18;;;;;;;10.73;100.00;99860.34;5073338;28;20035;-78
2023/09/22 01:53:35;;;;;;;37.08;12.73;;;;;;;10.74;100.00;99872.47;5069468;28;20021;-78
2023/09/22 01:56:00;;;;;;;36.63;13.85;;;;;;;10.73;100.00;99857.75;5061953;28;20489;-78
2023/09/22 01:58:26;;;;;;;39.83;13.93;;;;;;;10.73;100.00;99857.75;5070446;28;20124;-78
2023/09/22 02:00:51;;;;;;;37.03;14.65;;;;;;;10.71;100.00;99858.72;5064924;28;20103;-78
2023/09/22 02:03:18;;;;;;;39.60;14.27;;;;;;;10.68;100.00;99854.47;5072957;28;20040;-78
2023/09/22 02:05:43;;;;;;;34.03;12.93;;;;;;;10.71;100.00;99856.09;5068589;28;20051;-78
2023/09/22 02:08:09;;;;;;;35.97;13.50;;;;;;;10.72;100.00;99845.59;5072414;28;20051;-78
2023/09/22 02:10:35;;;;;;;33.63;13.02;;;;;;;10.71;100.00;99848.28;5067500;28;20036;-78
2023/09/22 02:13:00;;;;;;;41.00;12.93;;;;;;;10.73;100.00;99852.53;5065764;28;20028;-78
2023/09/22 02:15:25;;;;;;;37.97;13.95;;;;;;;10.74;100.00;99854.22;5063592;28;20349;-78
2023/09/22 02:17:51;;;;;;;31.42;12.88;;;;;;;10.78;100.00;99860.16;5066288;28;20028;-78
2023/09/22 02:20:22;;;;;;;39.42;13.68;;;;;;;10.76;100.00;99865.44;5068190;28;20503;-78
2023/09/22 02:22:53;;;;;;;38.10;13.52;;;;;;;10.77;100.00;99869.75;5070844;28;20544;-78
2023/09/22 02:25:19;;;;;;;41.70;13.48;;;;;;;10.77;100.00;99864.53;5068821;28;20017;-78
2023/09/22 02:27:47;;;;;;;34.45;12.80;;;;;;;10.74;100.00;99869.03;5066384;28;20020;-78
2023/09/22 02:30:14;;;;;;;42.10;14.45;;;;;;;10.79;100.00;99867.09;5067538;28;20021;-78
2023/09/22 02:32:41;;;;;;;48.03;15.07;;;;;;;10.81;100.00;99860.03;5065092;28;20467;-78
2023/09/22 02:35:07;;;;;;;43.53;14.88;;;;;;;10.78;100.00;99855.78;5067854;28;20371;-78
2023/09/22 02:37:32;;;;;;;44.17;15.40;;;;;;;10.81;100.00;99853.97;5066777;28;20043;-78
2023/09/22 02:39:58;;;;;;;38.85;14.52;;;;;;;10.78;100.00;99847.97;5069831;28;20177;-78
2023/09/22 02:42:23;;;;;;;40.47;15.00;;;;;;;10.81;100.00;99857.44;5071801;28;20036;-78
2023/09/22 02:44:49;;;;;;;42.58;14.50;;;;;;;10.81;100.00;99854.81;5069196;28;20021;-78
2023/09/22 02:47:14;;;;;;;40.25;14.05;;;;;;;10.87;100.00;99858.97;5071829;28;20029;-78
2023/09/22 02:49:40;;;;;;;37.03;14.57;;;;;;;10.81;100.00;99861.81;5067190;28;20024;-78
2023/09/22 02:52:05;;;;;;;44.47;13.88;;;;;;;10.82;100.00;99866.94;5052393;28;20102;-78
2023/09/22 02:54:31;;;;;;;36.58;14.27;;;;;;;10.82;100.00;99861.72;5061040;28;20112;-78
2023/09/22 02:56:56;;;;;;;37.60;13.38;;;;;;;10.83;100.00;99862.59;5064280;28;20036;-78
2023/09/22 02:59:22;;;;;;;35.33;13.80;;;;;;;10.85;100.00;99860.75;5058984;28;20032;-78
2023/09/22 03:01:48;;;;;;;39.25;13.60;;;;;;;10.83;100.00;99858.22;5063715;28;20025;-78
2023/09/22 03:04:14;;;;;;;35.22;13.07;;;;;;;10.83;100.00;99860.84;5062060;28;20445;-78
2023/09/22 03:06:39;;;;;;;54.75;13.98;;;;;;;10.87;100.00;99864.16;5062194;28;20067;-78
2023/09/22 03:09:07;;;;;;;34.13;12.63;;;;;;;10.79;100.00;99861.88;5062731;28;20463;-78
2023/09/22 03:11:33;;;;;;;37.33;13.65;;;;;;;10.78;100.00;99862.78;5059954;28;20115;-79
2023/09/22 03:13:58;;;;;;;38.40;12.88;;;;;;;10.71;100.00;99859.56;5066743;28;20460;-78
2023/09/22 03:16:25;;;;;;;39.88;13.57;;;;;;;10.75;100.00;99870.72;5060453;28;20043;-78
2023/09/22 03:18:50;;;;;;;34.80;12.80;;;;;;;10.77;100.00;99874.13;5066521;28;20115;-78
2023/09/22 03:21:20;;;;;;;30.00;12.70;;;;;;;10.74;100.00;99866.41;5060458;28;20059;-78
2023/09/22 03:23:46;;;;;;;32.78;11.93;;;;;;;10.77;100.00;99869.75;5066817;28;20056;-78
2023/09/22 03:26:12;;;;;;;33.38;12.52;;;;;;;10.83;100.00;99865.22;5062363;28;20028;-78
2023/09/22 03:28:37;;;;;;;32.97;12.27;;;;;;;10.86;100.00;99868.53;5066426;28;20040;-78
2023/09/22 03:31:03;;;;;;;33.33;12.30;;;;;;;10.89;100.00;99867.53;5060867;28;20052;-78
2023/09/22 03:33:28;;;;;;;30.88;11.77;;;;;;;10.90;100.00;99859.69;5064399;28;20388;-78
2023/09/22 03:35:54;;;;;;;30.30;10.98;;;;;;;10.85;100.00;99856.38;5063593;28;20024;-78
2023/09/22 03:38:19;;;;;;;26.88;11.68;;;;;;;11.00;100.00;99870.59;5062735;28;20030;-78
2023/09/22 03:40:44;;;;;;;28.73;11.82;;;;;;;11.07;100.00;99876.41;5062654;28;20453;-78
2023/09/22 03:43:10;;;;;;;30.42;12.00;;;;;;;11.11;100.00;99884.03;5063658;28;20536;-78
2023/09/22 03:45:35;;;;;;;34.92;11.45;;;;;;;11.06;100.00;99862.50;5064944;28;20024;-78
2023/09/22 03:48:01;;;;;;;24.88;10.73;;;;;;;11.08;100.00;99878.09;5066795;28;20023;-79
2023/09/22 03:50:26;;;;;;;22.65;9.95;;;;;;;11.08;100.00;99872.88;5064072;28;20021;-79
2023/09/22 03:52:52;;;;;;;21.45;10.05;;;;;;;11.04;100.00;99874.75;5065829;28;20057;-78
2023/09/22 03:55:18;;;;;;;22.98;9.52;;;;;;;11.00;100.00;99875.81;5063339;28;20033;-78
2023/09/22 03:57:44;;;;;;;19.67;8.80;;;;;;;10.97;100.00;99883.75;5062183;28;20074;-79
2023/09/22 04:00:24;;;;;;;22.50;9.45;;;;;;;10.96;100.00;99882.91;5064988;28;20016;-78
2023/09/22 04:02:50;;;;;;;19.25;9.48;;;;;;;11.00;100.00;99887.06;5056436;28;20029;-78
2023/09/22 04:05:16;;;;;;;22.45;8.98;;;;;;;11.07;100.00;99879.00;5064094;28;20438;-78
2023/09/22 04:07:41;;;;;;;17.73;9.30;;;;;;;11.08;100.00;99878.94;5064644;28;20445;-78
2023/09/22 04:10:08;;;;;;;23.10;8.25;;;;;;;11.13;100.00;99887.44;5066302;28;20111;-78
2023/09/22 04:12:35;;;;;;;25.05;9.02;;;;;;;11.14;100.00;99883.06;5064245;28;20083;-78
2023/09/22 04:15:04;;;;;;;17.48;8.38;;;;;;;11.08;100.00;99878.09;5064949;28;20074;-78
2023/09/22 04:17:31;;;;;;;19.55;8.88;;;;;;;11.11;100.00;99885.78;5061495;28;20036;-79
2023/09/22 04:19:57;;;;;;;15.85;7.82;;;;;;;11.05;100.00;99883.44;5065135;28;20120;-78
2023/09/22 04:22:22;;;;;;;16.10;7.63;;;;;;;11.01;100.00;99883.53;5072519;28;20033;-78
2023/09/22 04:24:50;;;;;;;17.33;8.05;;;;;;;10.98;100.00;99899.31;5061601;28;20424;-79
2023/09/22 04:27:16;;;;;;;17.13;8.43;;;;;;;10.91;100.00;99897.88;5061089;28;20701;-78
2023/09/22 04:29:41;;;;;;;17.58;7.70;;;;;;;10.86;100.00;99902.44;5063654;28;20025;-79
2023/09/22 04:32:07;;;;;;;17.40;7.78;;;;;;;10.83;100.00;99899.94;5069989;28;20032;-79
2023/09/22 04:34:33;;;;;;;20.05;7.22;;;;;;;10.82;100.00;99903.44;5062782;28;20025;-79
2023/09/22 04:36:59;;;;;;;14.77;7.93;;;;;;;10.76;100.00;99894.13;5070929;28;20514;-78
2023/09/22 04:39:25;;;;;;;21.83;8.25;;;;;;;10.74;100.00;99902.91;5063229;28;20025;-78
2023/09/22 04:41:50;;;;;;;18.83;7.63;;;;;;;10.67;100.00;99883.22;5066814;28;20357;-78
2023/09/22 04:44:16;;;;;;;21.20;7.60;;;;;;;10.64;100.00;99898.97;5066360;28;20061;-78
2023/09/22 04:46:41;;;;;;;13.90;7.35;;;;;;;10.62;100.00;99896.41;5060897;28;20396;-79
2023/09/22 04:49:09;;;;;;;17.48;7.28;;;;;;;10.60;100.00;99903.44;5065181;28;20459;-78
2023/09/22 04:51:35;;;;;;;15.30;6.95;;;;;;;10.59;100.00;99906.94;5062808;28;20095;-78
2023/09/22 04:54:01;;;;;;;14.88;7.47;;;;;;;10.52;100.00;99895.91;5067314;28;20017;-78
2023/09/22 04:56:26;;;;;;;14.02;7.50;;;;;;;10.50;100.00;99894.28;5061783;28;20105;-78
2023/09/22 04:58:53;;;;;;;14.70;7.72;;;;;;;10.52;100.00;99901.13;5061189;28;20120;-78
2023/09/22 05:01:19;;;;;;;18.08;7.55;;;;;;;10.52;100.00;99900.28;5070024;28;20056;-78
2023/09/22 05:03:45;;;;;;;14.57;7.30;;;;;;;10.52;100.00;99908.09;5061456;28;20060;-79
2023/09/22 05:06:10;;;;;;;15.68;7.50;;;;;;;10.48;100.00;99898.69;5068133;28;20474;-78
2023/09/22 05:08:39;;;;;;;16.92;7.18;;;;;;;10.50;100.00;99918.59;5064632;28;20116;-78
2023/09/22 05:11:05;;;;;;;14.38;7.65;;;;;;;10.48;100.00;99903.91;5059317;28;20479;-78
2023/09/22 05:13:31;;;;;;;19.40;7.82;;;;;;;10.46;100.00;99909.19;5063688;28;20447;-78
2023/09/22 05:16:04;;;;;;;13.93;7.47;;;;;;;10.47;100.00;99913.50;5061665;28;20468;-78
2023/09/22 05:18:30;;;;;;;19.38;8.32;;;;;;;10.48;100.00;99912.56;5063069;28;20037;-78
2023/09/22 05:21:00;;;;;;;13.85;7.43;;;;;;;10.45;100.00;99920.50;5063801;28;20082;-80
2023/09/22 05:23:25;;;;;;;21.25;8.02;;;;;;;10.40;100.00;99925.06;5063174;28;20040;-79
2023/09/22 05:25:51;;;;;;;15.43;7.90;;;;;;;10.41;100.00;99931.97;5065508;28;20108;-79
2023/09/22 05:28:16;;;;;;;17.17;8.15;;;;;;;10.34;100.00;99922.69;5067142;28;20020;-78
2023/09/22 05:30:41;;;;;;;15.20;7.70;;;;;;;10.44;100.00;99931.84;5063495;28;20108;-79
2023/09/22 05:33:07;;;;;;;13.55;7.43;;;;;;;10.43;100.00;99935.38;5064685;28;20067;-79
2023/09/22 05:35:36;;;;;;;12.93;7.60;;;;;;;10.44;100.00;99936.22;5064992;28;20035;-78
2023/09/22 05:38:03;;;;;;;15.95;8.07;;;;;;;10.41;100.00;99931.97;5063517;28;20032;-78
2023/09/22 05:40:32;;;;;;;16.90;7.72;;;;;;;10.42;100.00;99941.47;5060802;28;20100;-79
2023/09/22 05:42:57;;;;;;;19.08;7.72;;;;;;;10.45;100.00;99950.94;5063739;28;20039;-79
2023/09/22 05:45:23;;;;;;;13.52;8.10;;;;;;;10.46;100.00;99952.63;5064156;28;20024;-79
2023/09/22 05:47:51;;;;;;;14.55;7.95;;;;;;;10.40;100.00;99945.91;5064171;28;20024;-78
2023/09/22 05:50:17;;;;;;;17.35;8.25;;;;;;;10.47;100.00;99956.94;5064798;28;20484;-78
2023/09/22 05:52:42;;;;;;;14.00;8.57;;;;;;;10.45;100.00;99946.56;5059013;28;20036;-78
2023/09/22 05:55:08;;;;;;;15.32;8.18;;;;;;;10.49;100.00;99950.75;5063901;28;20041;-79
2023/09/22 05:57:34;;;;;;;14.80;8.15;;;;;;;10.45;100.00;99941.34;5064467;28;20032;-78
2023/09/22 05:59:59;;;;;;;19.52;8.93;;;;;;;10.49;100.00;99953.34;5065856;28;20013;-79
2023/09/22 06:02:25;;;;;;;19.52;9.45;;;;;;;10.52;100.00;99966.28;5051068;28;20038;-78
2023/09/22 06:04:52;;;;;;;22.67;9.10;;;;;;;10.53;100.00;99970.59;5063858;28;20109;-79
2023/09/22 06:07:20;;;;;;;15.40;8.57;;;;;;;10.61;100.00;99969.47;5062526;28;20035;-79
2023/09/22 06:09:45;;;;;;;15.25;8.50;;;;;;;10.61;100.00;99977.28;5064416;28;20039;-79
2023/09/22 06:12:11;;;;;;;19.20;9.38;;;;;;;10.63;100.00;99973.72;5060941;28;20461;-79
2023/09/22 06:14:36;;;;;;;16.08;8.55;;;;;;;10.58;100.00;99964.34;5062472;28;20033;-79
2023/09/22 06:17:02;;;;;;;20.55;9.50;;;;;;;10.75;100.00;99985.41;5060870;28;20086;-79
2023/09/22 06:19:27;;;;;;;13.50;8.70;;;;;;;10.74;100.00;99979.34;5061932;28;20027;-79
2023/09/22 06:21:52;;;;;;;16.88;8.75;;;;;;;10.80;100.00;99985.25;5063869;28;20032;-79
2023/09/22 06:24:18;;;;;;;16.10;8.15;;;;;;;10.85;100.00;99980.69;5064029;28;20048;-79
2023/09/22 06:26:43;;;;;;;18.13;8.85;;;;;;;10.91;100.00;99991.75;5062108;28;20032;-79
2023/09/22 06:29:09;;;;;;;21.15;8.32;;;;;;;10.95;100.00;99989.88;5065822;28;20033;-79
2023/09/22 06:31:35;;;;;;;16.52;7.90;;;;;;;10.97;100.00;99991.50;5060652;28;20468;-79
2023/09/22 06:34:01;;;;;;;17.73;8.15;;;;;;;11.06;100.00;100000.75;5061537;28;20021;-79
2023/09/22 06:36:26;;;;;;;17.85;7.38;;;;;;;11.07;100.00;99999.84;5060536;28;20447;-79
2023/09/22 06:38:51;;;;;;;13.73;7.82;;;;;;;11.06;100.00;99989.47;5067746;28;20020;-79
2023/09/22 06:41:18;;;;;;;12.25;7.53;;;;;;;11.09;100.00;100000.63;5060152;28;20520;-78
2023/09/22 06:43:44;;;;;;;15.88;8.20;;;;;;;11.17;100.00;100008.16;5067501;28;20111;-78
2023/09/22 06:46:10;;;;;;;17.42;8.38;;;;;;;11.18;100.00;100004.63;5060818;28;20045;-78
2023/09/22 06:48:36;;;;;;;15.55;8.32;;;;;;;11.26;100.00;100018.22;5064458;28;20056;-79
2023/09/22 06:51:02;;;;;;;14.63;7.53;;;;;;;11.28;100.00;100021.66;5066517;28;20424;-79
2023/09/22 06:53:29;;;;;;;19.35;8.15;;;;;;;11.34;100.00;100016.16;5064200;28;20032;-79
2023/09/22 06:56:11;;;;;;;16.23;7.70;;;;;;;11.33;100.00;100001.41;5062918;28;20082;-79
2023/09/22 06:58:38;;;;;;;16.40;8.00;;;;;;;11.40;100.00;100022.91;5062832;28;20044;-79
2023/09/22 07:01:11;;;;;;;13.70;7.32;;;;;;;11.43;100.00;100015.78;5060652;28;20032;-79
2023/09/22 07:03:41;;;;;;;14.40;7.10;;;;;;;11.43;100.00;100018.41;5064742;28;20456;-78
2023/09/22 07:06:08;;;;;;;13.65;7.10;;;;;;;11.42;100.00;100029.75;5059687;28;20028;-78
2023/09/22 07:08:34;;;;;;;15.18;7.05;;;;;;;11.48;100.00;100020.84;5053902;28;20399;-78
2023/09/22 07:11:01;;;;;;;10.93;6.57;;;;;;;11.53;100.00;100021.50;5051448;28;20017;-78
2023/09/22 07:13:27;;;;;;;16.27;6.55;;;;;;;11.54;100.00;100024.94;5063595;28;20346;-78
2023/09/22 07:15:53;;;;;;;7.95;5.50;;;;;;;11.58;100.00;100031.78;5054746;28;20027;-78
2023/09/22 07:18:19;;;;;;;13.52;5.57;;;;;;;11.59;100.00;100036.06;5067012;28;20361;-78
2023/09/22 07:20:46;;;;;;;14.10;5.20;;;;;;;11.55;100.00;100024.06;5058676;28;20043;-78
2023/09/22 07:23:12;;;;;;;8.93;4.93;;;;;;;11.61;100.00;100039.47;5061242;28;20099;-78
2023/09/22 07:25:38;;;;;;;7.30;4.70;;;;;;;11.57;100.00;100028.28;5057480;28;20029;-78
2023/09/22 07:28:04;;;;;;;9.13;4.70;;;;;;;11.62;100.00;100031.56;5055764;28;20037;-78
2023/09/22 07:30:29;;;;;;;7.93;4.22;;;;;;;11.62;100.00;100033.34;5069797;28;20108;-78
2023/09/22 07:32:55;;;;;;;9.90;4.18;;;;;;;11.60;100.00;100038.59;5063750;28;20490;-78
2023/09/22 07:35:21;;;;;;;8.52;3.63;;;;;;;11.64;100.00;100049.78;5063816;28;20036;-79
2023/09/22 07:37:46;;;;;;;7.20;3.72;;;;;;;11.62;100.00;100051.63;5062935;28;20466;-78
2023/09/22 07:40:12;;;;;;;6.55;3.53;;;;;;;11.70;100.00;100054.75;5067265;28;20024;-77
2023/09/22 07:42:39;;;;;;;5.78;3.33;;;;;;;11.68;100.00;100061.81;5065110;28;20035;-78
2023/09/22 07:45:06;;;;;;;4.10;3.00;;;;;;;11.67;100.00;100060.09;5062212;28;20033;-77
2023/09/22 07:47:31;;;;;;;6.95;2.60;;;;;;;11.67;100.00;100067.91;5063023;28;20442;-77
2023/09/22 07:49:57;;;;;;;6.78;2.80;;;;;;;11.71;100.00;100067.75;5065422;28;20029;-77
2023/09/22 07:52:22;;;;;;;6.32;2.53;;;;;;;11.76;100.00;100067.56;5062560;28;20036;-77
2023/09/22 07:54:48;;;;;;;4.50;2.50;;;;;;;11.76;100.00;100069.31;5070204;28;20025;-77
2023/09/22 07:57:14;;;;;;;6.13;2.40;;;;;;;11.82;100.00;100082.13;5068828;28;20058;-78
2023/09/22 07:59:40;;;;;;;4.32;2.20;;;;;;;11.77;100.00;100071.88;5066654;28;20417;-77
2023/09/22 08:02:06;;;;;;;3.85;1.90;;;;;;;11.76;100.00;100085.00;5059382;28;20039;-77
2023/09/22 08:04:31;;;;;;;4.65;2.05;;;;;;;11.77;100.00;100089.28;5071060;28;20025;-78
2023/09/22 08:06:59;;;;;;;2.92;1.80;;;;;;;11.79;100.00;100096.16;5059645;28;20057;-77
2023/09/22 08:09:25;;;;;;;2.53;1.83;;;;;;;11.79;100.00;100088.31;5062704;28;20443;-78
2023/09/22 08:11:52;;;;;;;4.93;1.95;;;;;;;11.86;100.00;100089.81;5061721;28;20049;-78
2023/09/22 08:14:18;;;;;;;4.68;2.22;;;;;;;11.98;100.00;100080.63;5064287;28;20036;-79
2023/09/22 08:16:43;;;;;;;5.18;2.15;;;;;;;12.27;100.00;100099.47;5067206;28;20017;-78
2023/09/22 08:19:11;;;;;;;4.03;2.22;;;;;;;12.33;100.00;100092.22;5069082;28;20029;-78
2023/09/22 08:21:40;;;;;;;3.92;1.60;;;;;;;12.37;100.00;100098.16;5067555;28;20029;-78
2023/09/22 08:24:07;;;;;;;7.45;1.80;;;;;;;12.52;100.00;100100.09;5071243;28;20048;-78
2023/09/22 08:26:33;;;;;;;3.30;1.50;;;;;;;12.49;100.00;100096.78;5057016;28;20029;-78
2023/09/22 08:28:59;;;;;;;3.33;1.90;;;;;;;12.54;100.00;100090.44;5071771;28;20021;-78
2023/09/22 08:31:26;;;;;;;3.15;1.70;;;;;;;12.68;100.00;100079.38;5064302;28;20033;-78
2023/09/22 08:33:52;;;;;;;2.67;1.63;;;;;;;12.91;100.00;100091.41;5066295;28;20029;-78
2023/09/22 08:36:17;;;;;;;3.00;1.63;;;;;;;13.07;100.00;100094.19;5064553;28;20496;-77
2023/09/22 08:38:42;;;;;;;2.97;1.90;;;;;;;13.05;100.00;100096.06;5068140;28;20043;-78
2023/09/22 08:41:08;;;;;;;3.85;1.27;;;;;;;13.15;100.00;100092.09;5062240;28;20036;-78
2023/09/22 08:43:35;;;;;;;4.40;1.25;;;;;;;13.21;100.00;100099.66;5058164;28;20057;-78
2023/09/22 08:46:01;;;;;;;2.40;1.05;;;;;;;13.34;100.00;100094.72;5053174;28;20031;-78
2023/09/22 08:48:27;;;;;;;4.15;1.55;;;;;;;13.64;100.00;100083.72;5065984;28;20033;-79
2023/09/22 08:50:54;;;;;;;2.50;1.40;;;;;;;14.00;100.00;100096.81;5057546;28;20082;-78
2023/09/22 08:53:19;;;;;;;3.55;1.45;;;;;;;14.23;100.00;100099.13;5063520;28;20036;-78
2023/09/22 08:55:44;;;;;;;2.33;1.10;;;;;;;14.36;100.00;100095.88;5052435;28;20045;-78
2023/09/22 08:58:10;;;;;;;2.78;1.30;;;;;;;14.63;100.00;100094.50;5064219;28;20031;-78
2023/09/22 09:00:35;;;;;;;1.92;1.13;;;;;;;14.84;100.00;100089.88;5062651;28;20068;-78
2023/09/22 09:03:09;;;;;;;3.20;1.30;;;;;;;14.83;100.00;100097.84;5064070;28;20112;-78
2023/09/22 09:05:36;;;;;;;2.67;1.05;;;;;;;14.62;100.00;100094.59;5052745;28;20029;-78
2023/09/22 09:08:12;;;;;;;2.10;1.08;;;;;;;14.43;100.00;100100.72;5061152;28;20107;-78
2023/09/22 09:10:38;;;;;;;2.00;1.00;;;;;;;14.26;100.00;100103.38;5055712;28;20024;-78
2023/09/22 09:13:06;;;;;;;2.60;1.00;;;;;;;14.16;100.00;100102.09;5056788;28;20025;-78
2023/09/22 09:15:45;;;;;;;6.53;1.25;;;;;;;14.08;100.00;100104.28;5056360;28;20037;-77
2023/09/22 09:18:13;;;;;;;3.88;1.10;;;;;;;13.82;100.00;100112.47;5060170;28;20483;-78
2023/09/22 09:20:43;;;;;;;3.00;1.10;;;;;;;13.76;100.00;100112.78;5055349;28;20031;-78
2023/09/22 09:23:15;;;;;;;3.63;0.88;;;;;;;13.65;100.00;100107.22;5056684;28;20435;-77
2023/09/22 09:25:55;;;;;;;1.45;0.95;;;;;;;13.62;100.00;100112.59;5057819;28;20503;-77
2023/09/22 09:28:21;;;;;;;3.35;1.17;;;;;;;13.62;100.00;100122.22;5049135;28;20021;-78
2023/09/22 09:30:57;;;;;;;1.48;1.00;;;;;;;13.87;100.00;100116.69;5059335;28;20076;-78
2023/09/22 09:33:28;;;;;;;2.60;0.90;;;;;;;13.99;100.00;100118.69;5056023;28;20049;-77
2023/09/22 09:35:54;;;;;;;2.08;1.00;;;;;;;14.11;100.00;100110.22;5060661;28;20485;-77
2023/09/22 09:38:25;;;;;;;3.25;1.20;;;;;;;13.95;100.00;100114.50;5050984;28;20020;-77
2023/09/22 09:40:51;;;;;;;4.38;1.15;;;;;;;13.91;100.00;100112.97;5058327;28;20127;-77
2023/09/22 09:43:17;;;;;;;3.42;1.30;;;;;;;14.01;100.00;100115.06;5058471;28;20476;-77
2023/09/22 09:45:47;;;;;;;2.83;1.15;;;;;;;14.18;100.00;100111.59;5055839;28;20520;-77
2023/09/22 09:48:16;;;;;;;2.13;1.20;;;;;;;14.34;100.00;100116.09;5052241;28;20024;-77
2023/09/22 09:50:53;;;;;;;3.70;1.10;;;;;;;14.47;100.00;100123.25;5059704;28;20028;-77
2023/09/22 09:53:40;;;;;;;3.38;0.98;;;;;;;14.51;100.00;100121.34;5054270;28;20388;-77
2023/09/22 09:56:06;;;;;;;1.75;0.98;;;;;;;14.51;100.00;100113.47;5055294;28;20049;-77
2023/09/22 09:58:34;;;;;;;1.90;1.02;;;;;;;14.54;100.00;100123.81;5059113;28;20488;-77
2023/09/22 10:01:02;;;;;;;4.70;1.20;;;;;;;14.54;100.00;100115.09;5045761;28;20025;-77
2023/09/22 10:03:28;;;;;;;1.85;1.13;;;;;;;14.72;100.00;100120.25;5048947;28;20499;-77
2023/09/22 10:05:56;;;;;;;2.58;1.63;;;;;;;14.84;100.00;100110.88;5048416;28;20048;-76
2023/09/22 10:08:22;;;;;;;3.30;1.05;;;;;;;15.08;100.00;100111.38;5049622;28;20052;-77
2023/09/22 10:10:55;;;;;;;3.20;0.93;;;;;;;15.23;100.00;100110.50;5051846;28;20029;-78
2023/09/22 10:13:21;;;;;;;1.65;0.90;;;;;;;15.26;100.00;100111.28;5061558;28;20039;-77
2023/09/22 10:15:54;;;;;;;2.35;1.10;;;;;;;15.04;100.00;100112.47;5060199;28;20514;-78
2023/09/22 10:18:20;;;;;;;3.33;1.20;;;;;;;14.89;100.00;100114.13;5071315;28;20021;-77
2023/09/22 10:20:47;;;;;;;3.15;1.15;;;;;;;15.01;100.00;100115.25;5059156;28;20028;-78
2023/09/22 10:23:18;;;;;;;2.60;1.35;;;;;;;14.95;100.00;100121.66;5052682;28;20108;-77
2023/09/22 10:26:19;;;;;;;3.13;1.20;;;;;;;14.92;100.00;100113.09;5052048;28;20447;-77
2023/09/22 10:28:45;;;;;;;2.38;1.10;;;;;;;14.91;100.00;100095.66;5061214;28;20451;-78
2023/09/22 10:31:10;;;;;;;2.00;1.02;;;;;;;15.05;100.00;100102.81;5059448;28;20105;-78
2023/09/22 10:33:36;;;;;;;4.13;1.80;;;;;;;15.23;100.00;100107.03;5063819;28;20483;-78
2023/09/22 10:36:04;;;;;;;2.97;1.20;;;;;;;15.33;100.00;100110.84;5061382;28;22047;-77
2023/09/22 10:38:29;;;;;;;2.08;1.05;;;;;;;15.41;100.00;100108.69;5052813;28;20032;-77
2023/09/22 10:41:03;;;;;;;1.33;0.93;;;;;;;15.41;100.00;100113.09;5061100;28;20111;-77
2023/09/22 10:43:30;;;;;;;3.70;0.90;;;;;;;15.35;100.00;100116.88;5060390;28;20039;-77
2023/09/22 10:45:56;;;;;;;3.03;1.15;;;;;;;15.43;100.00;100108.56;5053522;28;20053;-77
2023/09/22 10:48:22;;;;;;;3.38;0.90;;;;;;;15.58;100.00;100105.09;5064292;28;20029;-77
2023/09/22 10:50:51;;;;;;;4.95;1.60;;;;;;;15.89;100.00;100111.28;5063250;28;20094;-77
2023/09/22 10:53:16;;;;;;;3.53;1.02;;;;;;;16.25;100.00;100096.94;5059637;28;20040;-78
2023/09/22 10:55:43;;;;;;;2.58;1.13;;;;;;;16.84;100.00;100097.84;5049585;28;20473;-78
2023/09/22 10:58:10;;;;;;;2.38;0.95;;;;;;;17.31;100.00;100097.50;5068301;28;20119;-77
2023/09/22 11:00:40;;;;;;;1.90;1.15;;;;;;;17.71;100.00;100102.84;5054251;28;20036;-77
2023/09/22 11:03:15;;;;;;;3.13;1.33;;;;;;;18.01;100.00;100097.38;5052803;28;20039;-76
2023/09/22 11:05:43;;;;;;;2.72;0.90;;;;;;;18.22;100.00;100096.91;5051686;28;20020;-77
2023/09/22 11:08:16;;;;;;;4.28;1.67;;;;;;;18.37;100.00;100101.13;5058945;28;20894;-77
2023/09/22 11:10:49;;;;;;;2.25;1.10;;;;;;;18.56;100.00;100106.00;5059941;28;20021;-77
2023/09/22 11:13:15;;;;;;;2.78;1.35;;;;;;;18.59;100.00;100107.59;5066236;28;20123;-77